createdAt,value
2018-05-17T00:02:11.345Z,99.90
2018-05-17T00:04:39.755Z,99.90
2018-05-17T00:07:07.368Z,99.90
2018-05-17T00:09:34.942Z,99.90
2018-05-17T00:12:03.381Z,99.90
2018-05-17T00:14:30.973Z,99.90
2018-05-17T00:16:58.583Z,99.90
2018-05-17T00:19:26.236Z,99.90
2018-05-17T00:21:53.840Z,99.90
2018-05-17T00:24:21.409Z,99.90
2018-05-17T00:26:49.111Z,99.90
2018-05-17T00:29:17.601Z,99.90
2018-05-17T00:31:45.222Z,99.90
2018-05-17T00:34:12.888Z,99.90
2018-05-17T00:36:40.467Z,99.90
2018-05-17T00:39:08.937Z,99.90
2018-05-17T00:41:36.720Z,99.90
2018-05-17T00:44:05.172Z,99.90
2018-05-17T00:46:32.769Z,99.90
2018-05-17T00:49:01.144Z,99.90
2018-05-17T00:51:29.572Z,99.90
2018-05-17T00:53:57.177Z,99.90
2018-05-17T00:56:25.530Z,99.90
2018-05-17T00:58:53.113Z,99.90
2018-05-17T01:01:21.449Z,99.90
2018-05-17T01:03:49.049Z,99.90
2018-05-17T01:06:17.382Z,99.90
2018-05-17T01:08:45.002Z,99.90
2018-05-17T01:11:13.388Z,99.90
2018-05-17T01:13:41.011Z,99.90
2018-05-17T01:16:08.588Z,99.90
2018-05-17T01:18:36.174Z,99.90
2018-05-17T01:21:04.508Z,99.90
2018-05-17T01:23:32.107Z,99.90
2018-05-17T01:26:00.456Z,99.90
2018-05-17T01:28:28.074Z,99.90
2018-05-17T01:30:55.640Z,99.90
2018-05-17T01:33:23.230Z,99.90
2018-05-17T01:35:50.815Z,99.90
2018-05-17T01:38:25.906Z,99.90
2018-05-17T01:40:53.465Z,99.90
2018-05-17T01:43:21.040Z,99.90
2018-05-17T01:45:48.660Z,99.90
2018-05-17T01:48:17.043Z,99.90
2018-05-17T01:50:44.808Z,99.90
2018-05-17T01:53:12.388Z,99.90
2018-05-17T01:55:39.971Z,99.90
2018-05-17T01:58:07.718Z,99.90
2018-05-17T02:00:35.317Z,99.90
2018-05-17T02:03:02.923Z,99.90
2018-05-17T02:05:30.508Z,99.90
2018-05-17T02:07:58.945Z,99.90
2018-05-17T02:10:27.314Z,99.90
2018-05-17T02:12:54.930Z,99.90
2018-05-17T02:15:22.532Z,99.90
2018-05-17T02:17:50.123Z,99.90
2018-05-17T02:20:19.072Z,99.90
2018-05-17T02:22:46.651Z,99.90
2018-05-17T02:25:15.114Z,99.90
2018-05-17T02:27:42.732Z,99.90
2018-05-17T02:30:11.080Z,99.90
2018-05-17T02:32:39.471Z,99.90
2018-05-17T02:35:07.804Z,99.90
2018-05-17T02:37:35.391Z,99.90
2018-05-17T02:40:02.950Z,99.90
2018-05-17T02:42:30.538Z,99.90
2018-05-17T02:44:58.138Z,99.90
2018-05-17T02:47:25.736Z,99.90
2018-05-17T02:49:53.313Z,99.90
2018-05-17T02:52:21.694Z,99.90
2018-05-17T02:54:50.071Z,99.90
2018-05-17T02:57:18.502Z,99.90
2018-05-17T02:59:46.069Z,99.90
2018-05-17T03:02:13.729Z,99.90
2018-05-17T03:04:41.370Z,99.90
2018-05-17T03:07:08.932Z,99.90
2018-05-17T03:09:36.643Z,99.90
2018-05-17T03:12:05.465Z,99.90
2018-05-17T03:14:33.748Z,99.90
2018-05-17T03:17:01.391Z,99.90
2018-05-17T03:19:29.857Z,99.90
2018-05-17T03:21:57.510Z,99.90
2018-05-17T03:24:25.234Z,99.90
2018-05-17T03:26:53.516Z,99.90
2018-05-17T03:29:21.121Z,99.90
2018-05-17T03:31:48.737Z,99.90
2018-05-17T03:34:16.382Z,99.90
2018-05-17T03:36:43.955Z,99.90
2018-05-17T03:39:12.476Z,99.90
2018-05-17T03:41:40.090Z,99.90
2018-05-17T03:44:08.508Z,99.90
2018-05-17T03:46:36.103Z,99.90
2018-05-17T03:49:04.449Z,99.90
2018-05-17T03:51:32.245Z,99.90
2018-05-17T03:53:59.831Z,99.90
2018-05-17T03:56:27.517Z,99.90
2018-05-17T03:58:55.917Z,99.90
2018-05-17T04:01:35.364Z,99.90
2018-05-17T04:04:14.749Z,99.90
2018-05-17T04:06:43.199Z,99.90
2018-05-17T04:09:11.519Z,99.90
2018-05-17T04:11:39.106Z,99.90
2018-05-17T04:14:06.680Z,99.90
2018-05-17T04:16:34.280Z,99.90
2018-05-17T04:19:02.612Z,99.90
2018-05-17T04:21:30.205Z,99.90
2018-05-17T04:23:57.888Z,99.90
2018-05-17T04:26:26.244Z,99.90
2018-05-17T04:28:53.916Z,99.90
2018-05-17T04:31:22.662Z,99.90
2018-05-17T04:33:50.240Z,99.90
2018-05-17T04:36:17.815Z,99.90
2018-05-17T04:38:46.171Z,99.90
2018-05-17T04:41:14.892Z,99.90
2018-05-17T04:43:42.461Z,99.90
2018-05-17T04:46:10.682Z,99.90
2018-05-17T04:48:38.308Z,99.90
2018-05-17T04:51:06.669Z,99.90
2018-05-17T04:53:34.261Z,99.90
2018-05-17T04:56:01.839Z,99.90
2018-05-17T04:58:29.453Z,99.90
2018-05-17T05:00:57.039Z,99.90
2018-05-17T05:03:25.448Z,99.90
2018-05-17T05:05:53.177Z,99.90
2018-05-17T05:08:21.553Z,99.90
2018-05-17T05:10:49.129Z,99.90
2018-05-17T05:13:17.503Z,99.90
2018-05-17T05:15:46.833Z,99.90
2018-05-17T05:18:14.539Z,99.90
2018-05-17T05:20:42.113Z,99.90
2018-05-17T05:23:10.449Z,99.90
2018-05-17T05:25:38.095Z,99.90
2018-05-17T05:28:05.707Z,99.90
2018-05-17T05:30:33.377Z,99.90
2018-05-17T05:33:01.751Z,99.90
2018-05-17T05:35:29.368Z,99.90
2018-05-17T05:37:56.963Z,99.90
2018-05-17T05:40:24.524Z,99.90
2018-05-17T05:42:52.102Z,99.90
2018-05-17T05:45:19.691Z,99.90
2018-05-17T05:47:47.313Z,99.90
2018-05-17T05:50:14.925Z,99.90
2018-05-17T05:52:42.513Z,99.90
2018-05-17T05:55:10.137Z,99.90
2018-05-17T05:57:37.726Z,99.90
2018-05-17T06:00:05.305Z,99.90
2018-05-17T06:02:33.064Z,99.90
2018-05-17T06:05:00.756Z,99.90
2018-05-17T06:07:28.418Z,99.90
2018-05-17T06:09:56.048Z,99.90
2018-05-17T06:12:24.358Z,99.90
2018-05-17T06:14:51.924Z,99.90
2018-05-17T06:17:19.587Z,99.90
2018-05-17T06:19:47.156Z,99.90
2018-05-17T06:22:15.498Z,99.90
2018-05-17T06:24:43.248Z,99.90
2018-05-17T06:27:10.813Z,99.90
2018-05-17T06:29:38.414Z,99.90
2018-05-17T06:32:06.873Z,99.90
2018-05-17T06:34:35.316Z,99.90
2018-05-17T06:37:03.708Z,99.90
2018-05-17T06:39:31.302Z,99.90
2018-05-17T06:41:58.944Z,99.90
2018-05-17T06:44:26.524Z,99.90
2018-05-17T06:46:54.144Z,99.90
2018-05-17T06:49:21.995Z,99.90
2018-05-17T06:51:50.344Z,99.90
2018-05-17T06:54:17.944Z,99.90
2018-05-17T06:56:45.656Z,99.90
2018-05-17T06:59:13.306Z,99.90
2018-05-17T07:01:40.990Z,99.90
2018-05-17T07:04:08.544Z,99.90
2018-05-17T07:06:36.142Z,99.90
2018-05-17T07:09:04.208Z,99.90
2018-05-17T07:11:32.607Z,99.90
2018-05-17T07:14:00.189Z,99.90
2018-05-17T07:16:27.755Z,99.90
2018-05-17T07:18:55.352Z,99.90
2018-05-17T07:21:23.084Z,99.90
2018-05-17T07:23:50.694Z,99.90
2018-05-17T07:26:19.144Z,99.90
2018-05-17T07:28:46.841Z,99.90
2018-05-17T07:31:15.194Z,99.90
2018-05-17T07:33:42.828Z,99.90
2018-05-17T07:36:10.414Z,99.90
2018-05-17T07:38:37.998Z,99.90
2018-05-17T07:41:06.365Z,99.90
2018-05-17T07:43:33.977Z,99.90
2018-05-17T07:46:01.575Z,99.90
2018-05-17T07:48:29.238Z,96.70
2018-05-17T07:50:56.808Z,95.80
2018-05-17T07:53:24.440Z,94.70
2018-05-17T07:55:52.040Z,93.60
2018-05-17T07:58:19.637Z,93.70
2018-05-17T08:00:47.297Z,94.60
2018-05-17T08:03:14.879Z,95.20
2018-05-17T08:05:42.501Z,97.80
2018-05-17T08:08:10.863Z,99.40
2018-05-17T08:10:38.504Z,99.40
2018-05-17T08:13:06.077Z,97.80
2018-05-17T08:15:33.676Z,99.40
2018-05-17T08:18:01.357Z,99.90
2018-05-17T08:20:28.869Z,99.40
2018-05-17T08:22:56.549Z,99.30
2018-05-17T08:25:24.905Z,92.80
2018-05-17T08:27:52.511Z,92.70
2018-05-17T08:30:20.137Z,87.70
2018-05-17T08:32:47.720Z,90.10
2018-05-17T08:35:16.086Z,85.40
2018-05-17T08:37:44.574Z,88.10
2018-05-17T08:40:12.899Z,89.10
2018-05-17T08:42:40.522Z,88.80
2018-05-17T08:45:08.877Z,91.80
2018-05-17T08:47:36.456Z,91.80
2018-05-17T08:50:04.805Z,88.50
2018-05-17T08:52:32.430Z,88.40
2018-05-17T08:55:00.032Z,89.50
2018-05-17T08:57:27.624Z,79.80
2018-05-17T08:59:55.987Z,78.40
2018-05-17T09:02:24.877Z,85.70
2018-05-17T09:04:52.448Z,85.80
2018-05-17T09:07:20.100Z,86.50
2018-05-17T09:09:47.775Z,86.90
2018-05-17T09:12:16.131Z,89.10
2018-05-17T09:14:43.721Z,88.90
2018-05-17T09:17:12.121Z,84.00
2018-05-17T09:19:40.242Z,83.90
2018-05-17T09:22:07.836Z,78.60
2018-05-17T09:24:36.198Z,79.30
2018-05-17T09:27:03.776Z,79.10
2018-05-17T09:29:32.154Z,75.80
2018-05-17T09:32:00.494Z,77.10
2018-05-17T09:34:28.151Z,77.40
2018-05-17T09:36:55.776Z,69.80
2018-05-17T09:39:23.354Z,74.30
2018-05-17T09:41:51.694Z,68.20
2018-05-17T09:44:20.056Z,69.50
2018-05-17T09:46:47.619Z,69.40
2018-05-17T09:49:15.997Z,70.50
2018-05-17T09:51:43.645Z,72.00
2018-05-17T09:54:11.217Z,77.90
2018-05-17T09:56:38.807Z,81.70
2018-05-17T09:59:07.278Z,81.00
2018-05-17T10:01:35.640Z,82.30
2018-05-17T10:04:03.224Z,82.20
2018-05-17T10:06:31.609Z,82.30
2018-05-17T10:09:00.037Z,81.30
2018-05-17T10:11:27.636Z,81.20
2018-05-17T10:13:55.267Z,77.10
2018-05-17T10:16:26.001Z,74.50
2018-05-17T10:18:53.580Z,76.40
2018-05-17T10:21:21.211Z,72.30
2018-05-17T10:23:48.820Z,71.30
2018-05-17T10:26:17.777Z,68.10
2018-05-17T10:28:45.368Z,72.90
2018-05-17T10:31:12.957Z,77.20
2018-05-17T10:33:40.547Z,73.20
2018-05-17T10:36:08.155Z,71.10
2018-05-17T10:38:35.793Z,71.80
2018-05-17T10:41:03.543Z,73.90
2018-05-17T10:43:31.110Z,67.60
2018-05-17T10:45:59.675Z,71.60
2018-05-17T10:48:27.300Z,66.50
2018-05-17T10:50:55.685Z,74.80
2018-05-17T10:53:24.036Z,72.60
2018-05-17T10:55:51.620Z,72.30
2018-05-17T10:58:20.047Z,73.30
2018-05-17T11:00:47.686Z,73.80
2018-05-17T11:03:15.254Z,66.70
2018-05-17T11:05:42.868Z,72.30
2018-05-17T11:08:10.465Z,74.80
2018-05-17T11:10:38.042Z,70.20
2018-05-17T11:13:05.631Z,74.60
2018-05-17T11:15:33.222Z,72.30
2018-05-17T11:18:02.497Z,73.20
2018-05-17T11:20:30.281Z,76.50
2018-05-17T11:22:57.925Z,83.80
2018-05-17T11:25:25.505Z,83.20
2018-05-17T11:27:53.100Z,80.60
2018-05-17T11:30:20.672Z,82.60
2018-05-17T11:32:48.280Z,81.60
2018-05-17T11:35:15.863Z,76.80
2018-05-17T11:37:44.214Z,73.10
2018-05-17T11:40:11.797Z,73.10
2018-05-17T11:42:39.382Z,72.80
2018-05-17T11:45:07.102Z,80.30
2018-05-17T11:47:34.706Z,77.10
2018-05-17T11:50:03.061Z,82.20
2018-05-17T11:52:30.675Z,81.70
2018-05-17T11:54:58.404Z,81.50
2018-05-17T11:57:30.447Z,84.00
2018-05-17T11:59:58.030Z,83.90
2018-05-17T12:02:26.392Z,86.80
2018-05-17T12:04:53.973Z,87.10
2018-05-17T12:07:22.365Z,80.20
2018-05-17T12:09:49.920Z,80.30
2018-05-17T12:12:18.251Z,79.50
2018-05-17T12:14:45.846Z,79.50
2018-05-17T12:17:14.276Z,88.80
2018-05-17T12:19:41.908Z,88.60
2018-05-17T12:22:09.502Z,87.20
2018-05-17T12:24:37.158Z,82.90
2018-05-17T12:27:04.747Z,80.20
2018-05-17T12:29:32.462Z,83.00
2018-05-17T12:32:00.924Z,87.80
2018-05-17T12:34:28.520Z,87.80
2018-05-17T12:36:56.213Z,86.80
2018-05-17T12:39:24.600Z,90.70
2018-05-17T12:41:52.164Z,90.80
2018-05-17T12:44:19.822Z,88.80
2018-05-17T12:46:47.409Z,82.80
2018-05-17T12:49:15.839Z,88.10
2018-05-17T12:51:43.483Z,88.10
2018-05-17T12:54:11.057Z,86.20
2018-05-17T12:56:38.712Z,90.00
2018-05-17T12:59:06.428Z,85.50
2018-05-17T13:01:34.022Z,87.20
2018-05-17T13:04:01.613Z,85.80
2018-05-17T13:06:29.209Z,90.00
2018-05-17T13:08:56.798Z,82.00
2018-05-17T13:11:25.188Z,86.30
2018-05-17T13:13:52.791Z,86.30
2018-05-17T13:16:20.447Z,91.10
2018-05-17T13:18:48.011Z,85.90
2018-05-17T13:21:15.602Z,85.70
2018-05-17T13:23:43.241Z,89.00
2018-05-17T13:26:10.842Z,82.60
2018-05-17T13:28:38.484Z,87.20
2018-05-17T13:31:06.066Z,82.60
2018-05-17T13:33:34.459Z,85.00
2018-05-17T13:36:02.157Z,86.20
2018-05-17T13:38:29.845Z,84.80
2018-05-17T13:40:57.455Z,83.40
2018-05-17T13:43:25.081Z,85.10
2018-05-17T13:45:52.730Z,87.70
2018-05-17T13:48:20.394Z,86.00
2018-05-17T13:50:48.147Z,84.60
2018-05-17T13:53:15.739Z,87.60
2018-05-17T13:55:44.085Z,83.80
2018-05-17T13:58:11.673Z,83.70
2018-05-17T14:00:40.102Z,85.20
2018-05-17T14:03:07.716Z,85.50
2018-05-17T14:05:36.236Z,86.60
2018-05-17T14:08:03.857Z,86.50
2018-05-17T14:10:31.416Z,85.10
2018-05-17T14:12:59.033Z,83.40
2018-05-17T14:15:27.413Z,85.30
2018-05-17T14:17:55.000Z,85.20
2018-05-17T14:20:22.571Z,86.30
2018-05-17T14:22:50.158Z,89.30
2018-05-17T14:25:18.537Z,87.10
2018-05-17T14:27:46.901Z,89.50
2018-05-17T14:30:14.539Z,89.30
2018-05-17T14:32:42.189Z,85.50
2018-05-17T14:35:09.850Z,87.60
2018-05-17T14:37:37.447Z,85.10
2018-05-17T14:40:05.043Z,88.20
2018-05-17T14:42:32.701Z,85.80
2018-05-17T14:45:01.052Z,89.40
2018-05-17T14:47:28.697Z,89.40
2018-05-17T14:49:56.322Z,88.30
2018-05-17T14:52:23.922Z,90.10
2018-05-17T14:54:51.552Z,90.10
2018-05-17T14:57:19.140Z,90.70
2018-05-17T14:59:46.764Z,86.60
2018-05-17T15:02:14.345Z,91.70
2018-05-17T15:04:42.017Z,90.70
2018-05-17T15:07:09.629Z,90.00
2018-05-17T15:09:38.001Z,89.10
2018-05-17T15:12:05.623Z,89.00
2018-05-17T15:14:33.249Z,88.70
2018-05-17T15:17:01.676Z,89.40
2018-05-17T15:19:29.254Z,86.20
2018-05-17T15:21:56.896Z,86.80
2018-05-17T15:24:24.536Z,90.50
2018-05-17T15:26:52.125Z,90.00
2018-05-17T15:29:19.768Z,86.10
2018-05-17T15:31:47.375Z,88.20
2018-05-17T15:34:15.049Z,88.70
2018-05-17T15:36:43.428Z,88.50
2018-05-17T15:39:11.756Z,89.30
2018-05-17T15:41:39.458Z,89.30
2018-05-17T15:44:07.751Z,90.20
2018-05-17T15:46:36.132Z,89.30
2018-05-17T15:49:04.878Z,88.50
2018-05-17T15:51:32.452Z,88.30
2018-05-17T15:54:00.069Z,88.20
2018-05-17T15:56:27.696Z,85.90
2018-05-17T15:58:56.043Z,90.50
2018-05-17T16:01:24.068Z,90.50
2018-05-17T16:03:51.812Z,89.80
2018-05-17T16:06:20.183Z,90.70
2018-05-17T16:08:47.785Z,90.70
2018-05-17T16:11:15.366Z,90.20
2018-05-17T16:13:46.532Z,90.90
2018-05-17T16:16:14.109Z,91.30
2018-05-17T16:18:41.688Z,92.70
2018-05-17T16:21:10.084Z,90.80
2018-05-17T16:23:37.750Z,90.70
2018-05-17T16:26:05.352Z,92.40
2018-05-17T16:28:32.985Z,93.10
2018-05-17T16:31:00.581Z,91.40
2018-05-17T16:33:28.361Z,92.40
2018-05-17T16:35:55.940Z,92.20
2018-05-17T16:38:24.500Z,91.50
2018-05-17T16:40:52.084Z,91.50
2018-05-17T16:43:21.196Z,91.40
2018-05-17T16:45:49.550Z,92.60
2018-05-17T16:48:18.340Z,92.60
2018-05-17T16:50:45.871Z,93.20
2018-05-17T16:53:13.585Z,92.60
2018-05-17T16:55:42.124Z,92.50
2018-05-17T16:58:09.743Z,92.40
2018-05-17T17:00:37.412Z,92.80
2018-05-17T17:03:05.029Z,92.70
2018-05-17T17:05:32.624Z,92.90
2018-05-17T17:08:00.251Z,93.50
2018-05-17T17:10:27.902Z,93.40
2018-05-17T17:12:55.540Z,93.80
2018-05-17T17:15:23.212Z,93.80
2018-05-17T17:17:50.837Z,94.10
2018-05-17T17:20:18.501Z,94.70
2018-05-17T17:22:46.079Z,95.40
2018-05-17T17:25:13.673Z,94.80
2018-05-17T17:27:41.283Z,95.50
2018-05-17T17:30:08.970Z,95.60
2018-05-17T17:32:36.560Z,96.80
2018-05-17T17:35:04.257Z,96.60
2018-05-17T17:37:32.603Z,96.40
2018-05-17T17:40:00.174Z,96.40
2018-05-17T17:42:27.795Z,96.60
2018-05-17T17:44:55.566Z,97.60
2018-05-17T17:47:23.185Z,98.20
2018-05-17T17:49:51.894Z,98.40
2018-05-17T17:52:19.451Z,98.40
2018-05-17T17:54:47.040Z,98.60
2018-05-17T17:57:14.661Z,99.30
2018-05-17T17:59:43.061Z,99.80
2018-05-17T18:02:10.762Z,99.80
2018-05-17T18:04:38.396Z,99.90
2018-05-17T18:07:05.985Z,99.90
2018-05-17T18:09:33.620Z,99.90
2018-05-17T18:12:01.285Z,99.90
2018-05-17T18:14:29.020Z,99.90
2018-05-17T18:16:58.318Z,99.90
2018-05-17T18:19:25.957Z,99.90
2018-05-17T18:21:53.539Z,99.90
2018-05-17T18:24:21.204Z,99.90
2018-05-17T18:26:50.458Z,99.90
2018-05-17T18:31:52.911Z,99.90
2018-05-17T18:34:20.533Z,99.90
2018-05-17T18:36:48.139Z,99.90
2018-05-17T18:39:15.801Z,99.90
2018-05-17T18:41:43.323Z,99.90
2018-05-17T18:44:10.898Z,99.90
2018-05-17T18:46:39.266Z,99.90
2018-05-17T18:49:06.872Z,99.90
2018-05-17T18:51:34.448Z,99.90
2018-05-17T18:54:02.845Z,99.90
2018-05-17T18:56:30.451Z,99.90
2018-05-17T18:58:59.676Z,99.90
2018-05-17T19:01:27.343Z,99.90
2018-05-17T19:03:54.934Z,99.90
2018-05-17T19:06:22.556Z,99.90
2018-05-17T19:08:50.225Z,99.90
2018-05-17T19:11:17.813Z,99.90
2018-05-17T19:13:45.430Z,99.90
2018-05-17T19:16:13.017Z,99.90
2018-05-17T19:18:40.717Z,99.90
2018-05-17T19:21:08.378Z,99.90
2018-05-17T19:23:36.005Z,99.90
2018-05-17T19:26:03.860Z,99.90
2018-05-17T19:28:31.476Z,99.90
2018-05-17T19:30:59.350Z,99.90
2018-05-17T19:33:27.782Z,99.90
2018-05-17T19:35:55.392Z,99.90
2018-05-17T19:38:23.113Z,99.90
2018-05-17T19:40:50.700Z,99.90
2018-05-17T19:43:18.293Z,99.90
2018-05-17T19:45:46.660Z,99.90
2018-05-17T19:48:14.374Z,99.90
2018-05-17T19:50:42.099Z,99.90
2018-05-17T19:53:10.480Z,99.90
2018-05-17T19:55:38.800Z,99.90
2018-05-17T19:58:06.454Z,99.90
2018-05-17T20:00:34.063Z,99.90
2018-05-17T20:03:01.698Z,99.90
2018-05-17T20:05:29.340Z,99.90
2018-05-17T20:07:56.940Z,99.90
2018-05-17T20:10:24.573Z,99.90
2018-05-17T20:12:52.154Z,99.90
2018-05-17T20:15:19.751Z,99.90
2018-05-17T20:17:48.092Z,99.90
2018-05-17T20:20:15.736Z,99.90
2018-05-17T20:22:43.369Z,99.90
2018-05-17T20:25:11.745Z,99.90
2018-05-17T20:27:40.170Z,99.90
2018-05-17T20:30:07.755Z,99.90
2018-05-17T20:32:35.335Z,99.90
2018-05-17T20:35:03.888Z,99.90
2018-05-17T20:37:31.529Z,99.90
2018-05-17T20:39:59.161Z,99.90
2018-05-17T20:42:27.630Z,99.90
2018-05-17T20:44:55.175Z,99.90
2018-05-17T20:47:22.810Z,99.90
2018-05-17T20:49:50.427Z,99.90
2018-05-17T20:52:18.795Z,99.90
2018-05-17T20:54:47.118Z,99.90
2018-05-17T20:57:14.721Z,99.90
2018-05-17T20:59:42.339Z,99.90
2018-05-17T21:02:09.960Z,99.90
2018-05-17T21:04:38.339Z,99.90
2018-05-17T21:07:06.725Z,99.90
2018-05-17T21:09:35.081Z,99.90
2018-05-17T21:12:02.672Z,99.90
2018-05-17T21:14:31.032Z,99.90
2018-05-17T21:17:00.220Z,99.90
2018-05-17T21:19:27.798Z,99.90
2018-05-17T21:21:56.207Z,99.90
2018-05-17T21:24:23.871Z,99.90
2018-05-17T21:26:51.597Z,99.90
2018-05-17T21:29:19.157Z,99.90
2018-05-17T21:31:47.544Z,99.90
2018-05-17T21:34:15.875Z,99.90
2018-05-17T21:36:43.491Z,99.90
2018-05-17T21:39:11.856Z,99.90
2018-05-17T21:41:39.444Z,99.90
2018-05-17T21:44:07.048Z,99.90
2018-05-17T21:46:34.655Z,99.90
2018-05-17T21:49:03.035Z,99.90
2018-05-17T21:51:31.383Z,99.90
2018-05-17T21:53:59.014Z,99.90
2018-05-17T21:56:26.686Z,99.90
2018-05-17T21:58:54.294Z,99.90
2018-05-17T22:01:22.685Z,99.90
2018-05-17T22:03:51.031Z,99.90
2018-05-17T22:06:18.710Z,99.90
2018-05-17T22:08:46.291Z,99.90
2018-05-17T22:11:13.879Z,99.90
2018-05-17T22:13:42.249Z,99.90
2018-05-17T22:16:10.023Z,99.90
2018-05-17T22:18:37.596Z,99.90
2018-05-17T22:21:05.832Z,99.90
2018-05-17T22:23:33.404Z,99.90
2018-05-17T22:26:00.993Z,99.90
2018-05-17T22:28:28.581Z,99.90
2018-05-17T22:30:56.180Z,99.90
2018-05-17T22:33:24.529Z,99.90
2018-05-17T22:35:52.198Z,99.90
2018-05-17T22:38:19.759Z,99.90
2018-05-17T22:40:47.337Z,99.90
2018-05-17T22:43:15.729Z,99.90
2018-05-17T22:45:43.325Z,99.90
2018-05-17T22:48:10.916Z,99.90
2018-05-17T22:50:38.581Z,99.90
2018-05-17T22:53:06.167Z,99.90
2018-05-17T22:55:34.503Z,99.90
2018-05-17T22:58:13.868Z,99.90
2018-05-17T23:00:41.471Z,99.90
2018-05-17T23:03:09.081Z,99.90
2018-05-17T23:05:36.687Z,99.90
2018-05-17T23:08:04.294Z,99.90
2018-05-17T23:10:32.634Z,99.90
2018-05-17T23:13:00.220Z,99.90
2018-05-17T23:15:27.796Z,99.90
2018-05-17T23:17:55.405Z,99.90
2018-05-17T23:20:23.040Z,99.90
2018-05-17T23:22:51.391Z,99.90
2018-05-17T23:25:18.953Z,99.90
2018-05-17T23:27:46.536Z,99.90
2018-05-17T23:30:14.873Z,99.90
2018-05-17T23:32:42.481Z,99.90
2018-05-17T23:35:10.992Z,99.90
2018-05-17T23:37:38.582Z,99.90
2018-05-17T23:40:18.078Z,99.90
2018-05-17T23:42:46.478Z,99.90
2018-05-17T23:45:14.086Z,99.90
2018-05-17T23:47:41.656Z,99.90
2018-05-17T23:50:10.086Z,99.90
2018-05-17T23:52:37.678Z,99.90
2018-05-17T23:55:05.282Z,99.90
2018-05-17T23:57:33.498Z,99.90
